sensor_id;sensor_type;location;lat;lon;timestamp;P1;durP1;ratioP1;P2;durP2;ratioP2
69057;SDS011;56128;37.534;-122.308;2023-06-24T00:01:30;4.50;;;2.67;;
69057;SDS011;56128;37.534;-122.308;2023-06-24T00:03:57;3.53;;;2.20;;
69057;SDS011;56128;37.534;-122.308;2023-06-24T00:06:23;4.15;;;2.35;;
69057;SDS011;56128;37.534;-122.308;2023-06-24T00:08:51;3.67;;;2.40;;
69057;SDS011;56128;37.534;-122.308;2023-06-24T00:11:26;4.20;;;2.60;;
69057;SDS011;56128;37.534;-122.308;2023-06-24T00:13:55;5.78;;;2.38;;
69057;SDS011;56128;37.534;-122.308;2023-06-24T00:16:24;2.92;;;2.20;;
69057;SDS011;56128;37.534;-122.308;2023-06-24T00:18:54;4.78;;;2.40;;
69057;SDS011;56128;37.534;-122.308;2023-06-24T00:21:25;6.18;;;3.00;;
69057;SDS011;56128;37.534;-122.308;2023-06-24T00:24:00;4.00;;;2.60;;
69057;SDS011;56128;37.534;-122.308;2023-06-24T00:26:31;4.32;;;2.30;;
69057;SDS011;56128;37.534;-122.308;2023-06-24T00:28:58;3.83;;;2.25;;
69057;SDS011;56128;37.534;-122.308;2023-06-24T00:31:24;3.63;;;2.70;;
69057;SDS011;56128;37.534;-122.308;2023-06-24T00:33:50;4.13;;;2.50;;
69057;SDS011;56128;37.534;-122.308;2023-06-24T00:36:19;4.40;;;2.70;;
69057;SDS011;56128;37.534;-122.308;2023-06-24T00:38:46;4.78;;;2.65;;
69057;SDS011;56128;37.534;-122.308;2023-06-24T00:41:14;4.32;;;2.53;;
69057;SDS011;56128;37.534;-122.308;2023-06-24T00:43:44;4.57;;;2.35;;
69057;SDS011;56128;37.534;-122.308;2023-06-24T00:46:11;4.10;;;2.40;;
69057;SDS011;56128;37.534;-122.308;2023-06-24T00:48:40;3.10;;;2.33;;
69057;SDS011;56128;37.534;-122.308;2023-06-24T00:51:07;3.90;;;2.53;;
69057;SDS011;56128;37.534;-122.308;2023-06-24T00:53:33;3.25;;;2.40;;
69057;SDS011;56128;37.534;-122.308;2023-06-24T00:55:59;3.47;;;2.40;;
69057;SDS011;56128;37.534;-122.308;2023-06-24T00:58:30;5.47;;;2.35;;
69057;SDS011;56128;37.534;-122.308;2023-06-24T01:00:59;5.13;;;2.50;;
69057;SDS011;56128;37.534;-122.308;2023-06-24T01:03:26;3.80;;;2.50;;
69057;SDS011;56128;37.534;-122.308;2023-06-24T01:05:53;3.90;;;2.47;;
69057;SDS011;56128;37.534;-122.308;2023-06-24T01:08:20;3.35;;;2.17;;
69057;SDS011;56128;37.534;-122.308;2023-06-24T01:10:49;4.47;;;2.17;;
69057;SDS011;56128;37.534;-122.308;2023-06-24T01:13:18;4.68;;;2.10;;
69057;SDS011;56128;37.534;-122.308;2023-06-24T01:15:45;2.92;;;1.83;;
69057;SDS011;56128;37.534;-122.308;2023-06-24T01:20:58;3.90;;;2.58;;
69057;SDS011;56128;37.534;-122.308;2023-06-24T01:26:44;3.08;;;1.98;;
69057;SDS011;56128;37.534;-122.308;2023-06-24T01:32:09;2.92;;;2.03;;
69057;SDS011;56128;37.534;-122.308;2023-06-24T01:35:01;4.78;;;2.35;;
69057;SDS011;56128;37.534;-122.308;2023-06-24T01:37:35;3.58;;;2.33;;
69057;SDS011;56128;37.534;-122.308;2023-06-24T01:40:25;3.60;;;2.00;;
69057;SDS011;56128;37.534;-122.308;2023-06-24T01:42:53;5.50;;;2.17;;
69057;SDS011;56128;37.534;-122.308;2023-06-24T01:45:23;4.47;;;2.10;;
69057;SDS011;56128;37.534;-122.308;2023-06-24T01:48:02;4.07;;;2.28;;
69057;SDS011;56128;37.534;-122.308;2023-06-24T01:50:35;3.75;;;1.90;;
69057;SDS011;56128;37.534;-122.308;2023-06-24T01:53:04;3.42;;;2.25;;
69057;SDS011;56128;37.534;-122.308;2023-06-24T01:55:33;3.97;;;2.50;;
69057;SDS011;56128;37.534;-122.308;2023-06-24T01:58:02;4.95;;;2.30;;
69057;SDS011;56128;37.534;-122.308;2023-06-24T02:00:33;3.92;;;2.53;;
69057;SDS011;56128;37.534;-122.308;2023-06-24T02:03:01;4.72;;;2.42;;
69057;SDS011;56128;37.534;-122.308;2023-06-24T02:05:29;4.53;;;2.30;;
69057;SDS011;56128;37.534;-122.308;2023-06-24T02:08:00;3.55;;;2.17;;
69057;SDS011;56128;37.534;-122.308;2023-06-24T02:10:28;4.45;;;2.10;;
69057;SDS011;56128;37.534;-122.308;2023-06-24T02:12:58;3.58;;;2.30;;
69057;SDS011;56128;37.534;-122.308;2023-06-24T02:15:25;3.92;;;2.50;;
69057;SDS011;56128;37.534;-122.308;2023-06-24T02:17:54;2.80;;;2.00;;
69057;SDS011;56128;37.534;-122.308;2023-06-24T02:20:22;4.00;;;2.10;;
69057;SDS011;56128;37.534;-122.308;2023-06-24T02:22:53;3.38;;;2.17;;
69057;SDS011;56128;37.534;-122.308;2023-06-24T02:25:21;4.05;;;2.10;;
69057;SDS011;56128;37.534;-122.308;2023-06-24T02:27:49;4.07;;;2.20;;
69057;SDS011;56128;37.534;-122.308;2023-06-24T02:30:17;7.57;;;2.50;;
69057;SDS011;56128;37.534;-122.308;2023-06-24T02:32:47;3.80;;;2.05;;
69057;SDS011;56128;37.534;-122.308;2023-06-24T02:35:13;5.13;;;2.00;;
69057;SDS011;56128;37.534;-122.308;2023-06-24T02:37:39;5.50;;;2.50;;
69057;SDS011;56128;37.534;-122.308;2023-06-24T02:40:06;5.65;;;2.17;;
69057;SDS011;56128;37.534;-122.308;2023-06-24T02:42:34;3.42;;;2.08;;
69057;SDS011;56128;37.534;-122.308;2023-06-24T02:45:01;3.45;;;2.22;;
69057;SDS011;56128;37.534;-122.308;2023-06-24T02:47:29;3.20;;;1.83;;
69057;SDS011;56128;37.534;-122.308;2023-06-24T02:49:56;3.83;;;2.10;;
69057;SDS011;56128;37.534;-122.308;2023-06-24T02:52:23;2.92;;;1.70;;
69057;SDS011;56128;37.534;-122.308;2023-06-24T02:54:55;3.40;;;1.85;;
69057;SDS011;56128;37.534;-122.308;2023-06-24T02:57:23;3.65;;;2.22;;
69057;SDS011;56128;37.534;-122.308;2023-06-24T02:59:50;4.20;;;2.00;;
69057;SDS011;56128;37.534;-122.308;2023-06-24T03:02:17;3.53;;;1.92;;
69057;SDS011;56128;37.534;-122.308;2023-06-24T03:04:43;5.40;;;2.10;;
69057;SDS011;56128;37.534;-122.308;2023-06-24T03:07:11;5.43;;;2.00;;
69057;SDS011;56128;37.534;-122.308;2023-06-24T03:09:37;4.10;;;1.90;;
69057;SDS011;56128;37.534;-122.308;2023-06-24T03:12:04;3.15;;;2.30;;
69057;SDS011;56128;37.534;-122.308;2023-06-24T03:14:31;3.65;;;2.10;;
69057;SDS011;56128;37.534;-122.308;2023-06-24T03:16:58;5.35;;;3.13;;
69057;SDS011;56128;37.534;-122.308;2023-06-24T03:19:25;4.82;;;2.50;;
69057;SDS011;56128;37.534;-122.308;2023-06-24T03:21:51;3.45;;;2.13;;
69057;SDS011;56128;37.534;-122.308;2023-06-24T03:24:17;5.00;;;2.38;;
69057;SDS011;56128;37.534;-122.308;2023-06-24T03:26:44;3.05;;;2.35;;
69057;SDS011;56128;37.534;-122.308;2023-06-24T03:29:10;6.00;;;2.50;;
69057;SDS011;56128;37.534;-122.308;2023-06-24T03:31:38;4.68;;;2.80;;
69057;SDS011;56128;37.534;-122.308;2023-06-24T03:34:09;4.20;;;2.13;;
69057;SDS011;56128;37.534;-122.308;2023-06-24T03:36:37;3.63;;;2.28;;
69057;SDS011;56128;37.534;-122.308;2023-06-24T03:39:05;5.57;;;2.60;;
69057;SDS011;56128;37.534;-122.308;2023-06-24T03:41:31;6.60;;;2.50;;
69057;SDS011;56128;37.534;-122.308;2023-06-24T03:43:58;5.68;;;2.65;;
69057;SDS011;56128;37.534;-122.308;2023-06-24T03:46:24;5.53;;;2.70;;
69057;SDS011;56128;37.534;-122.308;2023-06-24T03:48:51;7.70;;;3.00;;
69057;SDS011;56128;37.534;-122.308;2023-06-24T03:51:17;3.70;;;2.30;;
69057;SDS011;56128;37.534;-122.308;2023-06-24T03:53:43;4.53;;;2.60;;
69057;SDS011;56128;37.534;-122.308;2023-06-24T03:56:09;4.68;;;2.50;;
69057;SDS011;56128;37.534;-122.308;2023-06-24T03:58:35;3.70;;;2.30;;
69057;SDS011;56128;37.534;-122.308;2023-06-24T04:01:02;5.30;;;2.58;;
69057;SDS011;56128;37.534;-122.308;2023-06-24T04:03:28;4.28;;;2.60;;
69057;SDS011;56128;37.534;-122.308;2023-06-24T04:05:55;5.05;;;2.70;;
69057;SDS011;56128;37.534;-122.308;2023-06-24T04:08:22;6.97;;;2.75;;
69057;SDS011;56128;37.534;-122.308;2023-06-24T04:10:54;5.30;;;2.70;;
69057;SDS011;56128;37.534;-122.308;2023-06-24T04:13:21;4.32;;;2.58;;
69057;SDS011;56128;37.534;-122.308;2023-06-24T04:15:47;5.15;;;2.90;;
69057;SDS011;56128;37.534;-122.308;2023-06-24T04:18:13;4.22;;;2.78;;
69057;SDS011;56128;37.534;-122.308;2023-06-24T04:20:40;3.83;;;2.60;;
69057;SDS011;56128;37.534;-122.308;2023-06-24T04:23:06;3.42;;;2.47;;
69057;SDS011;56128;37.534;-122.308;2023-06-24T04:25:34;4.65;;;2.30;;
69057;SDS011;56128;37.534;-122.308;2023-06-24T04:28:01;5.40;;;2.60;;
69057;SDS011;56128;37.534;-122.308;2023-06-24T04:30:28;3.20;;;2.10;;
69057;SDS011;56128;37.534;-122.308;2023-06-24T04:32:54;3.75;;;2.30;;
69057;SDS011;56128;37.534;-122.308;2023-06-24T04:35:22;3.63;;;2.25;;
69057;SDS011;56128;37.534;-122.308;2023-06-24T04:37:48;4.50;;;2.55;;
69057;SDS011;56128;37.534;-122.308;2023-06-24T04:40:17;3.78;;;2.53;;
69057;SDS011;56128;37.534;-122.308;2023-06-24T04:42:44;4.43;;;2.20;;
69057;SDS011;56128;37.534;-122.308;2023-06-24T04:45:11;3.85;;;2.25;;
69057;SDS011;56128;37.534;-122.308;2023-06-24T04:47:38;3.95;;;2.30;;
69057;SDS011;56128;37.534;-122.308;2023-06-24T04:50:04;6.28;;;2.75;;
69057;SDS011;56128;37.534;-122.308;2023-06-24T04:52:30;4.88;;;2.65;;
69057;SDS011;56128;37.534;-122.308;2023-06-24T04:54:57;4.00;;;2.30;;
69057;SDS011;56128;37.534;-122.308;2023-06-24T04:57:24;3.90;;;2.42;;
69057;SDS011;56128;37.534;-122.308;2023-06-24T04:59:52;5.18;;;2.70;;
69057;SDS011;56128;37.534;-122.308;2023-06-24T05:02:19;4.47;;;2.40;;
69057;SDS011;56128;37.534;-122.308;2023-06-24T05:04:46;3.65;;;2.65;;
69057;SDS011;56128;37.534;-122.308;2023-06-24T05:07:12;3.80;;;2.30;;
69057;SDS011;56128;37.534;-122.308;2023-06-24T05:09:38;3.83;;;2.63;;
69057;SDS011;56128;37.534;-122.308;2023-06-24T05:12:05;3.25;;;2.33;;
69057;SDS011;56128;37.534;-122.308;2023-06-24T05:14:34;5.68;;;2.55;;
69057;SDS011;56128;37.534;-122.308;2023-06-24T05:17:01;4.90;;;2.80;;
69057;SDS011;56128;37.534;-122.308;2023-06-24T05:19:28;5.70;;;3.00;;
69057;SDS011;56128;37.534;-122.308;2023-06-24T05:21:54;3.95;;;2.60;;
69057;SDS011;56128;37.534;-122.308;2023-06-24T05:24:20;4.07;;;2.72;;
69057;SDS011;56128;37.534;-122.308;2023-06-24T05:26:48;6.40;;;3.05;;
69057;SDS011;56128;37.534;-122.308;2023-06-24T05:29:16;5.25;;;2.47;;
69057;SDS011;56128;37.534;-122.308;2023-06-24T05:31:43;4.25;;;2.65;;
69057;SDS011;56128;37.534;-122.308;2023-06-24T05:34:09;4.70;;;2.67;;
69057;SDS011;56128;37.534;-122.308;2023-06-24T05:36:36;4.93;;;2.47;;
69057;SDS011;56128;37.534;-122.308;2023-06-24T05:39:02;3.97;;;2.47;;
69057;SDS011;56128;37.534;-122.308;2023-06-24T05:41:28;3.70;;;2.50;;
69057;SDS011;56128;37.534;-122.308;2023-06-24T05:44:01;5.78;;;2.85;;
69057;SDS011;56128;37.534;-122.308;2023-06-24T05:46:29;7.90;;;3.00;;
69057;SDS011;56128;37.534;-122.308;2023-06-24T05:48:55;4.72;;;2.70;;
69057;SDS011;56128;37.534;-122.308;2023-06-24T05:51:21;3.83;;;2.70;;
69057;SDS011;56128;37.534;-122.308;2023-06-24T05:53:47;6.75;;;2.88;;
69057;SDS011;56128;37.534;-122.308;2023-06-24T05:56:14;6.38;;;2.88;;
69057;SDS011;56128;37.534;-122.308;2023-06-24T05:58:40;4.85;;;2.58;;
69057;SDS011;56128;37.534;-122.308;2023-06-24T06:01:09;5.75;;;2.45;;
69057;SDS011;56128;37.534;-122.308;2023-06-24T06:03:36;4.78;;;2.78;;
69057;SDS011;56128;37.534;-122.308;2023-06-24T06:06:02;4.25;;;2.75;;
69057;SDS011;56128;37.534;-122.308;2023-06-24T06:08:28;4.07;;;2.72;;
69057;SDS011;56128;37.534;-122.308;2023-06-24T06:10:55;3.72;;;2.85;;
69057;SDS011;56128;37.534;-122.308;2023-06-24T06:13:21;3.97;;;2.97;;
69057;SDS011;56128;37.534;-122.308;2023-06-24T06:16:07;7.55;;;3.08;;
69057;SDS011;56128;37.534;-122.308;2023-06-24T06:18:33;5.78;;;2.92;;
69057;SDS011;56128;37.534;-122.308;2023-06-24T06:21:00;4.10;;;3.00;;
69057;SDS011;56128;37.534;-122.308;2023-06-24T06:23:26;5.90;;;3.08;;
69057;SDS011;56128;37.534;-122.308;2023-06-24T06:25:52;5.75;;;3.13;;
69057;SDS011;56128;37.534;-122.308;2023-06-24T06:28:18;6.22;;;2.85;;
69057;SDS011;56128;37.534;-122.308;2023-06-24T06:30:45;5.57;;;3.00;;
69057;SDS011;56128;37.534;-122.308;2023-06-24T06:33:11;5.15;;;3.15;;
69057;SDS011;56128;37.534;-122.308;2023-06-24T06:35:37;7.80;;;3.15;;
69057;SDS011;56128;37.534;-122.308;2023-06-24T06:38:04;5.53;;;3.03;;
69057;SDS011;56128;37.534;-122.308;2023-06-24T06:40:30;5.82;;;3.28;;
69057;SDS011;56128;37.534;-122.308;2023-06-24T06:42:56;5.05;;;3.40;;
69057;SDS011;56128;37.534;-122.308;2023-06-24T06:45:23;8.13;;;3.30;;
69057;SDS011;56128;37.534;-122.308;2023-06-24T06:47:49;5.15;;;2.97;;
69057;SDS011;56128;37.534;-122.308;2023-06-24T06:50:16;4.63;;;2.90;;
69057;SDS011;56128;37.534;-122.308;2023-06-24T06:52:42;4.68;;;3.40;;
69057;SDS011;56128;37.534;-122.308;2023-06-24T06:55:09;7.90;;;3.22;;
69057;SDS011;56128;37.534;-122.308;2023-06-24T06:57:35;5.15;;;3.15;;
69057;SDS011;56128;37.534;-122.308;2023-06-24T07:00:02;7.22;;;3.60;;
69057;SDS011;56128;37.534;-122.308;2023-06-24T07:02:29;6.07;;;3.70;;
69057;SDS011;56128;37.534;-122.308;2023-06-24T07:05:15;5.20;;;3.38;;
69057;SDS011;56128;37.534;-122.308;2023-06-24T07:07:41;5.53;;;3.55;;
69057;SDS011;56128;37.534;-122.308;2023-06-24T07:10:10;5.68;;;3.60;;
69057;SDS011;56128;37.534;-122.308;2023-06-24T07:12:37;6.28;;;3.70;;
69057;SDS011;56128;37.534;-122.308;2023-06-24T07:15:04;10.25;;;3.95;;
69057;SDS011;56128;37.534;-122.308;2023-06-24T07:17:30;6.28;;;3.17;;
69057;SDS011;56128;37.534;-122.308;2023-06-24T07:19:56;5.95;;;3.70;;
69057;SDS011;56128;37.534;-122.308;2023-06-24T07:22:23;6.53;;;3.70;;
69057;SDS011;56128;37.534;-122.308;2023-06-24T07:24:49;7.78;;;4.03;;
69057;SDS011;56128;37.534;-122.308;2023-06-24T07:27:15;5.88;;;4.03;;
69057;SDS011;56128;37.534;-122.308;2023-06-24T07:29:41;9.93;;;4.95;;
69057;SDS011;56128;37.534;-122.308;2023-06-24T07:32:07;9.80;;;4.30;;
69057;SDS011;56128;37.534;-122.308;2023-06-24T07:34:34;6.50;;;4.25;;
69057;SDS011;56128;37.534;-122.308;2023-06-24T07:37:00;9.60;;;4.22;;
69057;SDS011;56128;37.534;-122.308;2023-06-24T07:39:26;7.88;;;4.00;;
69057;SDS011;56128;37.534;-122.308;2023-06-24T07:41:52;6.68;;;3.67;;
69057;SDS011;56128;37.534;-122.308;2023-06-24T07:44:18;8.85;;;4.55;;
69057;SDS011;56128;37.534;-122.308;2023-06-24T07:46:45;7.82;;;4.30;;
69057;SDS011;56128;37.534;-122.308;2023-06-24T07:49:11;6.63;;;4.32;;
69057;SDS011;56128;37.534;-122.308;2023-06-24T07:51:38;8.32;;;4.65;;
69057;SDS011;56128;37.534;-122.308;2023-06-24T07:54:04;8.00;;;4.45;;
69057;SDS011;56128;37.534;-122.308;2023-06-24T07:56:30;8.35;;;4.80;;
69057;SDS011;56128;37.534;-122.308;2023-06-24T07:58:56;8.52;;;4.65;;
69057;SDS011;56128;37.534;-122.308;2023-06-24T08:01:22;7.65;;;4.93;;
69057;SDS011;56128;37.534;-122.308;2023-06-24T08:03:48;8.20;;;4.82;;
69057;SDS011;56128;37.534;-122.308;2023-06-24T08:06:15;8.38;;;4.65;;
69057;SDS011;56128;37.534;-122.308;2023-06-24T08:08:41;7.97;;;4.68;;
69057;SDS011;56128;37.534;-122.308;2023-06-24T08:11:07;11.88;;;4.72;;
69057;SDS011;56128;37.534;-122.308;2023-06-24T08:13:33;8.95;;;4.63;;
69057;SDS011;56128;37.534;-122.308;2023-06-24T08:15:59;10.52;;;5.05;;
69057;SDS011;56128;37.534;-122.308;2023-06-24T08:18:25;8.45;;;5.00;;
69057;SDS011;56128;37.534;-122.308;2023-06-24T08:20:52;8.55;;;5.00;;
69057;SDS011;56128;37.534;-122.308;2023-06-24T08:23:18;9.43;;;5.40;;
69057;SDS011;56128;37.534;-122.308;2023-06-24T08:25:44;9.88;;;5.22;;
69057;SDS011;56128;37.534;-122.308;2023-06-24T08:28:10;9.63;;;5.07;;
69057;SDS011;56128;37.534;-122.308;2023-06-24T08:30:37;11.75;;;5.07;;
69057;SDS011;56128;37.534;-122.308;2023-06-24T08:33:03;10.88;;;4.93;;
69057;SDS011;56128;37.534;-122.308;2023-06-24T08:35:29;11.98;;;5.22;;
69057;SDS011;56128;37.534;-122.308;2023-06-24T08:37:55;9.98;;;5.40;;
69057;SDS011;56128;37.534;-122.308;2023-06-24T08:40:22;8.25;;;5.43;;
69057;SDS011;56128;37.534;-122.308;2023-06-24T08:42:48;12.10;;;5.10;;
69057;SDS011;56128;37.534;-122.308;2023-06-24T08:45:14;9.85;;;5.47;;
69057;SDS011;56128;37.534;-122.308;2023-06-24T08:47:40;13.20;;;5.10;;
69057;SDS011;56128;37.534;-122.308;2023-06-24T08:50:11;9.38;;;5.05;;
69057;SDS011;56128;37.534;-122.308;2023-06-24T08:52:40;8.80;;;4.80;;
69057;SDS011;56128;37.534;-122.308;2023-06-24T08:55:12;6.95;;;4.95;;
69057;SDS011;56128;37.534;-122.308;2023-06-24T08:57:41;9.90;;;4.78;;
69057;SDS011;56128;37.534;-122.308;2023-06-24T09:00:08;12.13;;;5.97;;
69057;SDS011;56128;37.534;-122.308;2023-06-24T09:02:36;11.20;;;5.30;;
69057;SDS011;56128;37.534;-122.308;2023-06-24T09:05:06;9.93;;;5.28;;
69057;SDS011;56128;37.534;-122.308;2023-06-24T09:07:33;9.20;;;5.18;;
69057;SDS011;56128;37.534;-122.308;2023-06-24T09:10:00;11.13;;;5.38;;
69057;SDS011;56128;37.534;-122.308;2023-06-24T09:12:26;7.85;;;4.88;;
69057;SDS011;56128;37.534;-122.308;2023-06-24T09:14:52;9.30;;;4.95;;
69057;SDS011;56128;37.534;-122.308;2023-06-24T09:17:19;10.48;;;4.93;;
69057;SDS011;56128;37.534;-122.308;2023-06-24T09:19:48;9.15;;;4.93;;
69057;SDS011;56128;37.534;-122.308;2023-06-24T09:22:15;8.55;;;4.93;;
69057;SDS011;56128;37.534;-122.308;2023-06-24T09:24:45;8.98;;;4.85;;
69057;SDS011;56128;37.534;-122.308;2023-06-24T09:27:16;11.32;;;4.88;;
69057;SDS011;56128;37.534;-122.308;2023-06-24T09:29:47;9.30;;;5.40;;
69057;SDS011;56128;37.534;-122.308;2023-06-24T09:32:14;12.27;;;4.65;;
69057;SDS011;56128;37.534;-122.308;2023-06-24T09:34:40;9.43;;;5.03;;
69057;SDS011;56128;37.534;-122.308;2023-06-24T09:37:06;8.82;;;4.70;;
69057;SDS011;56128;37.534;-122.308;2023-06-24T09:39:36;9.23;;;4.95;;
69057;SDS011;56128;37.534;-122.308;2023-06-24T09:42:04;9.98;;;4.97;;
69057;SDS011;56128;37.534;-122.308;2023-06-24T09:44:32;11.07;;;5.43;;
69057;SDS011;56128;37.534;-122.308;2023-06-24T09:46:58;9.90;;;5.47;;
69057;SDS011;56128;37.534;-122.308;2023-06-24T09:49:25;9.35;;;4.85;;
69057;SDS011;56128;37.534;-122.308;2023-06-24T09:51:57;7.95;;;5.00;;
69057;SDS011;56128;37.534;-122.308;2023-06-24T09:54:28;10.10;;;4.70;;
69057;SDS011;56128;37.534;-122.308;2023-06-24T09:56:54;10.30;;;4.60;;
69057;SDS011;56128;37.534;-122.308;2023-06-24T09:59:24;9.93;;;5.10;;
69057;SDS011;56128;37.534;-122.308;2023-06-24T10:01:54;8.43;;;4.80;;
69057;SDS011;56128;37.534;-122.308;2023-06-24T10:04:22;10.18;;;5.32;;
69057;SDS011;56128;37.534;-122.308;2023-06-24T10:06:50;9.50;;;4.93;;
69057;SDS011;56128;37.534;-122.308;2023-06-24T10:09:17;10.75;;;4.70;;
69057;SDS011;56128;37.534;-122.308;2023-06-24T10:11:45;8.48;;;4.50;;
69057;SDS011;56128;37.534;-122.308;2023-06-24T10:14:12;7.90;;;4.90;;
69057;SDS011;56128;37.534;-122.308;2023-06-24T10:16:40;10.25;;;4.85;;
69057;SDS011;56128;37.534;-122.308;2023-06-24T10:19:07;7.80;;;4.47;;
69057;SDS011;56128;37.534;-122.308;2023-06-24T10:21:52;7.07;;;4.60;;
69057;SDS011;56128;37.534;-122.308;2023-06-24T10:24:35;8.93;;;4.85;;
69057;SDS011;56128;37.534;-122.308;2023-06-24T10:27:05;8.15;;;4.90;;
69057;SDS011;56128;37.534;-122.308;2023-06-24T10:29:37;8.40;;;4.25;;
69057;SDS011;56128;37.534;-122.308;2023-06-24T10:32:10;9.07;;;4.15;;
69057;SDS011;56128;37.534;-122.308;2023-06-24T10:34:55;6.43;;;4.00;;
69057;SDS011;56128;37.534;-122.308;2023-06-24T10:37:23;6.95;;;4.18;;
69057;SDS011;56128;37.534;-122.308;2023-06-24T10:39:55;6.15;;;4.03;;
69057;SDS011;56128;37.534;-122.308;2023-06-24T10:42:38;8.13;;;4.32;;
69057;SDS011;56128;37.534;-122.308;2023-06-24T10:47:37;9.52;;;4.82;;
69057;SDS011;56128;37.534;-122.308;2023-06-24T10:50:11;11.18;;;5.13;;
69057;SDS011;56128;37.534;-122.308;2023-06-24T10:52:45;8.10;;;4.65;;
69057;SDS011;56128;37.534;-122.308;2023-06-24T10:55:13;7.32;;;4.65;;
69057;SDS011;56128;37.534;-122.308;2023-06-24T10:57:41;9.55;;;4.63;;
69057;SDS011;56128;37.534;-122.308;2023-06-24T11:00:07;6.57;;;4.45;;
69057;SDS011;56128;37.534;-122.308;2023-06-24T11:02:34;9.80;;;4.72;;
69057;SDS011;56128;37.534;-122.308;2023-06-24T11:05:02;8.25;;;4.30;;
69057;SDS011;56128;37.534;-122.308;2023-06-24T11:07:30;9.10;;;4.50;;
69057;SDS011;56128;37.534;-122.308;2023-06-24T11:10:05;8.25;;;4.32;;
69057;SDS011;56128;37.534;-122.308;2023-06-24T11:15:02;8.68;;;4.50;;
69057;SDS011;56128;37.534;-122.308;2023-06-24T11:17:30;10.15;;;5.20;;
69057;SDS011;56128;37.534;-122.308;2023-06-24T11:19:58;9.02;;;4.85;;
69057;SDS011;56128;37.534;-122.308;2023-06-24T11:22:25;9.43;;;4.72;;
69057;SDS011;56128;37.534;-122.308;2023-06-24T11:24:52;9.88;;;5.05;;
69057;SDS011;56128;37.534;-122.308;2023-06-24T11:27:29;8.98;;;4.85;;
69057;SDS011;56128;37.534;-122.308;2023-06-24T11:29:57;9.90;;;5.40;;
69057;SDS011;56128;37.534;-122.308;2023-06-24T11:32:47;9.23;;;4.88;;
69057;SDS011;56128;37.534;-122.308;2023-06-24T11:35:13;11.90;;;5.18;;
69057;SDS011;56128;37.534;-122.308;2023-06-24T11:37:45;9.52;;;4.47;;
69057;SDS011;56128;37.534;-122.308;2023-06-24T11:40:13;8.75;;;4.90;;
69057;SDS011;56128;37.534;-122.308;2023-06-24T11:42:43;9.52;;;4.97;;
69057;SDS011;56128;37.534;-122.308;2023-06-24T11:45:10;11.70;;;5.03;;
69057;SDS011;56128;37.534;-122.308;2023-06-24T11:47:38;8.10;;;4.80;;
69057;SDS011;56128;37.534;-122.308;2023-06-24T11:50:05;9.30;;;4.78;;
69057;SDS011;56128;37.534;-122.308;2023-06-24T11:55:12;8.40;;;4.47;;
69057;SDS011;56128;37.534;-122.308;2023-06-24T12:00:29;8.63;;;4.93;;
69057;SDS011;56128;37.534;-122.308;2023-06-24T12:02:57;8.80;;;4.10;;
69057;SDS011;56128;37.534;-122.308;2023-06-24T12:05:31;7.72;;;3.95;;
69057;SDS011;56128;37.534;-122.308;2023-06-24T12:08:01;8.30;;;3.85;;
69057;SDS011;56128;37.534;-122.308;2023-06-24T12:10:29;9.18;;;4.95;;
69057;SDS011;56128;37.534;-122.308;2023-06-24T12:12:58;8.90;;;4.47;;
69057;SDS011;56128;37.534;-122.308;2023-06-24T12:15:26;9.52;;;4.47;;
69057;SDS011;56128;37.534;-122.308;2023-06-24T12:17:52;8.60;;;4.45;;
69057;SDS011;56128;37.534;-122.308;2023-06-24T12:20:19;8.27;;;3.95;;
69057;SDS011;56128;37.534;-122.308;2023-06-24T12:22:47;8.38;;;4.10;;
69057;SDS011;56128;37.534;-122.308;2023-06-24T12:25:14;7.38;;;4.43;;
69057;SDS011;56128;37.534;-122.308;2023-06-24T12:27:41;11.48;;;4.45;;
69057;SDS011;56128;37.534;-122.308;2023-06-24T12:30:09;8.15;;;4.35;;
69057;SDS011;56128;37.534;-122.308;2023-06-24T12:32:36;10.70;;;4.63;;
69057;SDS011;56128;37.534;-122.308;2023-06-24T12:35:03;7.10;;;4.13;;
69057;SDS011;56128;37.534;-122.308;2023-06-24T12:37:30;8.73;;;4.50;;
69057;SDS011;56128;37.534;-122.308;2023-06-24T12:39:58;9.32;;;3.95;;
69057;SDS011;56128;37.534;-122.308;2023-06-24T12:42:27;7.85;;;4.68;;
69057;SDS011;56128;37.534;-122.308;2023-06-24T12:44:53;8.07;;;4.75;;
69057;SDS011;56128;37.534;-122.308;2023-06-24T12:47:20;7.00;;;4.60;;
69057;SDS011;56128;37.534;-122.308;2023-06-24T12:49:47;8.88;;;4.50;;
69057;SDS011;56128;37.534;-122.308;2023-06-24T12:52:14;9.60;;;4.72;;
69057;SDS011;56128;37.534;-122.308;2023-06-24T12:54:41;6.97;;;4.35;;
69057;SDS011;56128;37.534;-122.308;2023-06-24T12:57:07;7.15;;;3.70;;
69057;SDS011;56128;37.534;-122.308;2023-06-24T12:59:33;9.15;;;4.60;;
69057;SDS011;56128;37.534;-122.308;2023-06-24T13:02:00;9.57;;;4.20;;
69057;SDS011;56128;37.534;-122.308;2023-06-24T13:04:27;8.35;;;4.43;;
69057;SDS011;56128;37.534;-122.308;2023-06-24T13:06:53;8.73;;;4.55;;
69057;SDS011;56128;37.534;-122.308;2023-06-24T13:09:19;9.00;;;4.03;;
69057;SDS011;56128;37.534;-122.308;2023-06-24T13:11:46;9.52;;;4.57;;
69057;SDS011;56128;37.534;-122.308;2023-06-24T13:14:14;8.98;;;4.55;;
69057;SDS011;56128;37.534;-122.308;2023-06-24T13:16:40;8.32;;;4.60;;
69057;SDS011;56128;37.534;-122.308;2023-06-24T13:19:07;8.48;;;4.50;;
69057;SDS011;56128;37.534;-122.308;2023-06-24T13:21:33;10.88;;;4.35;;
69057;SDS011;56128;37.534;-122.308;2023-06-24T13:23:59;7.05;;;3.80;;
69057;SDS011;56128;37.534;-122.308;2023-06-24T13:26:25;8.10;;;3.92;;
69057;SDS011;56128;37.534;-122.308;2023-06-24T13:28:51;9.10;;;4.10;;
69057;SDS011;56128;37.534;-122.308;2023-06-24T13:31:19;8.10;;;4.35;;
69057;SDS011;56128;37.534;-122.308;2023-06-24T13:33:45;8.77;;;3.92;;
69057;SDS011;56128;37.534;-122.308;2023-06-24T13:36:26;10.80;;;4.30;;
69057;SDS011;56128;37.534;-122.308;2023-06-24T13:38:56;11.35;;;4.30;;
69057;SDS011;56128;37.534;-122.308;2023-06-24T13:41:22;8.60;;;4.00;;
69057;SDS011;56128;37.534;-122.308;2023-06-24T13:43:49;7.53;;;3.85;;
69057;SDS011;56128;37.534;-122.308;2023-06-24T13:46:15;10.13;;;4.30;;
69057;SDS011;56128;37.534;-122.308;2023-06-24T13:48:41;8.05;;;4.07;;
69057;SDS011;56128;37.534;-122.308;2023-06-24T13:51:08;8.05;;;4.25;;
69057;SDS011;56128;37.534;-122.308;2023-06-24T13:53:34;9.15;;;3.83;;
69057;SDS011;56128;37.534;-122.308;2023-06-24T13:56:01;8.27;;;3.97;;
69057;SDS011;56128;37.534;-122.308;2023-06-24T13:58:27;8.65;;;3.97;;
69057;SDS011;56128;37.534;-122.308;2023-06-24T14:00:54;7.15;;;4.10;;
69057;SDS011;56128;37.534;-122.308;2023-06-24T14:03:20;8.75;;;3.88;;
69057;SDS011;56128;37.534;-122.308;2023-06-24T14:05:46;8.70;;;3.97;;
69057;SDS011;56128;37.534;-122.308;2023-06-24T14:08:12;9.07;;;3.95;;
69057;SDS011;56128;37.534;-122.308;2023-06-24T14:10:39;7.07;;;3.88;;
69057;SDS011;56128;37.534;-122.308;2023-06-24T14:13:05;8.68;;;4.05;;
69057;SDS011;56128;37.534;-122.308;2023-06-24T14:15:31;8.05;;;3.70;;
69057;SDS011;56128;37.534;-122.308;2023-06-24T14:17:57;8.40;;;3.97;;
69057;SDS011;56128;37.534;-122.308;2023-06-24T14:20:24;8.85;;;3.90;;
69057;SDS011;56128;37.534;-122.308;2023-06-24T14:22:50;6.72;;;3.72;;
69057;SDS011;56128;37.534;-122.308;2023-06-24T14:25:16;8.63;;;3.78;;
69057;SDS011;56128;37.534;-122.308;2023-06-24T14:27:43;6.07;;;3.90;;
69057;SDS011;56128;37.534;-122.308;2023-06-24T14:30:10;7.20;;;3.88;;
69057;SDS011;56128;37.534;-122.308;2023-06-24T14:32:37;7.53;;;4.03;;